Time;durP1;ratioP1;P1;durP2;ratioP2;P2;SDS_P1;SDS_P2;PMS_P1;PMS_P2;Temp;Humidity;BMP_temperature;BMP_pressure;BME280_temperature;BME280_humidity;BME280_pressure;Samples;Min_cycle;Max_cycle;Signal;HPM_P1;HPM_P2
2023/06/13 00:01:03;;;;;;;;;22.80;20.80;;;;;;;;1973478;28;3576238;-84
2023/06/13 00:02:16;;;;;;;;;27.00;23.67;;;;;;;;1958991;28;3574179;-85
2023/06/13 00:03:29;;;;;;;;;22.00;20.33;;;;;;;;1961182;28;3577647;-85
2023/06/13 00:04:43;;;;;;;;;24.33;20.00;;;;;;;;1961413;28;3574155;-86
2023/06/13 00:05:55;;;;;;;;;22.67;20.33;;;;;;;;1959681;28;3576247;-85
2023/06/13 00:07:09;;;;;;;;;24.00;20.33;;;;;;;;1959219;28;3584085;-85
2023/06/13 00:08:21;;;;;;;;;23.00;22.00;;;;;;;;1962975;28;2834622;-86
2023/06/13 00:09:32;;;;;;;;;25.00;19.00;;;;;;;;1953632;28;3586129;-85
2023/06/13 00:10:47;;;;;;;;;23.60;20.00;;;;;;;;1970471;28;2831526;-86
2023/06/13 00:11:58;;;;;;;;;27.00;25.00;;;;;;;;1980587;28;3593989;-85
2023/06/13 00:13:10;;;;;;;;;23.60;22.20;;;;;;;;1963317;28;2842013;-85
2023/06/13 00:14:23;;;;;;;;;27.33;21.00;;;;;;;;1985303;28;3582544;-85
2023/06/13 00:15:35;;;;;;;;;23.00;21.00;;;;;;;;1953463;28;2506525;-85
2023/06/13 00:16:50;;;;;;;;;25.50;20.00;;;;;;;;1959289;28;2507052;-85
2023/06/13 00:18:01;;;;;;;;;23.33;20.67;;;;;;;;1958743;28;3589885;-87
2023/06/13 00:19:13;;;;;;;;;25.80;24.00;;;;;;;;1978105;28;3580421;-87
2023/06/13 00:20:24;;;;;;;;;22.50;20.00;;;;;;;;1968314;28;2506582;-88
2023/06/13 00:21:36;;;;;;;;;19.60;18.60;;;;;;;;1971413;28;3566879;-87
2023/06/13 00:22:48;;;;;;;;;24.67;21.67;;;;;;;;1986971;28;3577317;-84
2023/06/13 00:24:00;;;;;;;;;27.00;24.33;;;;;;;;1959171;28;3587724;-88
2023/06/13 00:25:11;;;;;;;;;22.60;19.20;;;;;;;;1964247;28;2844099;-87
2023/06/13 00:26:22;;;;;;;;;25.60;23.00;;;;;;;;1984154;28;3580768;-86
2023/06/13 00:27:33;;;;;;;;;26.00;20.60;;;;;;;;1987960;28;2848229;-87
2023/06/13 00:28:44;;;;;;;;;27.00;26.00;;;;;;;;1983747;28;3572104;-87
2023/06/13 00:29:57;;;;;;;;;22.57;21.71;;;;;;;;1984783;28;3583573;-86
2023/06/13 00:31:10;;;;;;;;;23.71;21.71;;;;;;;;1977273;28;3576309;-86
2023/06/13 00:32:22;;;;;;;;;25.33;22.67;;;;;;;;1952665;28;3584062;-86
2023/06/13 00:33:34;;;;;;;;;25.40;19.20;;;;;;;;1960286;28;3580424;-86
2023/06/13 00:34:47;;;;;;;;;23.29;21.86;;;;;;;;1977473;28;3582521;-78
2023/06/13 00:36:00;;;;;;;;;24.86;20.71;;;;;;;;1973158;28;3580859;-80
2023/06/13 00:37:14;;;;;;;;;23.75;22.38;;;;;;;;1981686;28;3595042;-80
2023/06/13 00:38:25;;;;;;;;;23.00;22.50;;;;;;;;1982853;28;2840922;-80
2023/06/13 00:39:36;;;;;;;;;24.00;21.00;;;;;;;;1956382;28;2507022;-80
2023/06/13 00:40:47;;;;;;;;;30.00;24.00;;;;;;;;1968485;28;2506505;-80
2023/06/13 00:42:00;;;;;;;;;22.00;21.67;;;;;;;;1965409;28;3574534;-80
2023/06/13 00:43:11;;;;;;;;;24.00;22.33;;;;;;;;1956748;28;3577308;-80
2023/06/13 00:44:23;;;;;;;;;27.33;23.33;;;;;;;;1973040;28;3595086;-80
2023/06/13 00:45:35;;;;;;;;;25.00;21.60;;;;;;;;1983982;28;3574160;-80
2023/06/13 00:46:48;;;;;;;;;20.57;19.43;;;;;;;;1977950;28;3578356;-80
2023/06/13 00:48:05;;;;;;;;;27.71;23.71;;;;;;;;1980995;28;3578370;-79
2023/06/13 00:49:16;;;;;;;;;29.00;24.00;;;;;;;;1954240;28;2506517;-77
2023/06/13 00:50:28;;;;;;;;;23.00;22.00;;;;;;;;1960871;28;2850627;-82
2023/06/13 00:51:40;;;;;;;;;24.67;24.00;;;;;;;;1955090;28;3587704;-82
2023/06/13 00:52:52;;;;;;;;;31.20;25.20;;;;;;;;1966876;28;3604362;-80
2023/06/13 00:54:06;;;;;;;;;19.67;19.00;;;;;;;;1970000;28;3577860;-81
2023/06/13 00:55:18;;;;;;;;;27.33;24.67;;;;;;;;1953799;28;3591878;-80
2023/06/13 00:56:30;;;;;;;;;20.00;20.00;;;;;;;;1969373;28;3572115;-80
2023/06/13 00:57:41;;;;;;;;;24.00;22.20;;;;;;;;1975407;28;3582485;-80
2023/06/13 00:58:55;;;;;;;;;24.00;21.80;;;;;;;;1977640;28;3585632;-80
2023/06/13 01:00:06;;;;;;;;;24.00;22.00;;;;;;;;1952268;28;3577384;-80
2023/06/13 01:01:19;;;;;;;;;20.40;19.00;;;;;;;;1966460;28;3567909;-80
2023/06/13 01:02:30;;;;;;;;;20.67;20.67;;;;;;;;1957467;28;3587748;-81
2023/06/13 01:03:45;;;;;;;;;23.40;20.40;;;;;;;;1970011;28;2834673;-80
2023/06/13 01:04:57;;;;;;;;;23.00;20.33;;;;;;;;1983746;28;3576317;-80
2023/06/13 01:06:09;;;;;;;;;32.33;24.33;;;;;;;;1966077;28;3595047;-81
2023/06/13 01:07:20;;;;;;;;;25.33;22.00;;;;;;;;1964664;28;3583553;-81
2023/06/13 01:08:35;;;;;;;;;23.33;19.00;;;;;;;;1971367;28;3574221;-81
2023/06/13 01:09:46;;;;;;;;;22.00;22.00;;;;;;;;1958637;28;3585650;-81
2023/06/13 01:11:15;;;;;;;;;26.20;24.60;;;;;;;;1989657;28;3583549;-81
2023/06/13 01:12:33;;;;;;;;;26.00;24.67;;;;;;;;1958603;28;3582512;-81
2023/06/13 01:14:02;;;;;;;;;24.67;23.67;;;;;;;;1958581;28;3573188;-81
2023/06/13 01:15:16;;;;;;;;;24.67;20.67;;;;;;;;1961167;28;3571180;-81
2023/06/13 01:16:28;;;;;;;;;26.00;24.00;;;;;;;;1959848;28;3586699;-82
2023/06/13 01:17:43;;;;;;;;;24.00;23.00;;;;;;;;1962182;28;3577320;-82
2023/06/13 01:18:58;;;;;;;;;23.67;22.00;;;;;;;;1956788;28;3579907;-81
2023/06/13 01:20:14;;;;;;;;;27.00;23.00;;;;;;;;1958126;28;2506473;-81
2023/06/13 01:21:26;;;;;;;;;23.33;22.00;;;;;;;;1960467;28;3581554;-81
2023/06/13 01:22:42;;;;;;;;;25.67;22.00;;;;;;;;1955289;28;3587779;-81
2023/06/13 01:24:07;;;;;;;;;29.00;25.33;;;;;;;;1961353;28;3600243;-81
2023/06/13 01:25:21;;;;;;;;;23.00;22.00;;;;;;;;1956653;28;2837758;-81
2023/06/13 01:26:42;;;;;;;;;24.67;22.67;;;;;;;;1952531;28;3577385;-81
2023/06/13 01:27:55;;;;;;;;;20.67;19.33;;;;;;;;1954644;28;3582544;-81
2023/06/13 01:29:07;;;;;;;;;21.67;20.00;;;;;;;;1961246;28;3592972;-81
2023/06/13 01:30:20;;;;;;;;;23.00;23.00;;;;;;;;1976249;28;3578400;-81
2023/06/13 01:31:31;;;;;;;;;25.50;24.00;;;;;;;;1957690;28;2846091;-80
2023/06/13 01:32:42;;;;;;;;;28.00;24.50;;;;;;;;1961631;28;2850312;-80
2023/06/13 01:33:54;;;;;;;;;26.50;24.00;;;;;;;;1957340;28;2852309;-80
2023/06/13 01:35:06;;;;;;;;;26.67;24.00;;;;;;;;1956933;28;3577312;-82
2023/06/13 01:36:17;;;;;;;;;22.33;22.00;;;;;;;;1961470;28;3579446;-82
2023/06/13 01:37:30;;;;;;;;;22.00;21.29;;;;;;;;1977050;28;3587729;-82
2023/06/13 01:38:42;;;;;;;;;26.00;22.00;;;;;;;;1976126;28;3573106;-82
2023/06/13 01:39:54;;;;;;;;;20.67;20.00;;;;;;;;1965009;28;3572119;-83
2023/06/13 01:41:07;;;;;;;;;23.29;20.29;;;;;;;;1979437;28;3577292;-83
2023/06/13 01:42:20;;;;;;;;;27.13;23.63;;;;;;;;1983139;28;3594407;-83
2023/06/13 01:43:31;;;;;;;;;28.50;22.00;;;;;;;;1977087;28;2848635;-82
2023/06/13 01:44:43;;;;;;;;;28.20;22.60;;;;;;;;1981919;28;3589803;-82
2023/06/13 01:46:00;;;;;;;;;24.33;23.00;;;;;;;;1976144;28;3577336;-79
2023/06/13 01:47:14;;;;;;;;;24.00;21.00;;;;;;;;1961576;28;3577311;-78
2023/06/13 01:48:26;;;;;;;;;21.67;21.00;;;;;;;;1961111;28;3573184;-83
2023/06/13 01:49:44;;;;;;;;;27.00;24.60;;;;;;;;1987025;28;3574530;-84
2023/06/13 01:51:03;;;;;;;;;28.33;24.00;;;;;;;;1956007;28;3578381;-84
2023/06/13 01:52:32;;;;;;;;;18.33;18.33;;;;;;;;1949432;28;3554490;-84
2023/06/13 01:53:47;;;;;;;;;24.33;21.33;;;;;;;;1971399;28;3587732;-84
2023/06/13 01:55:08;;;;;;;;;28.00;22.50;;;;;;;;1952917;28;2506570;-84
2023/06/13 01:56:22;;;;;;;;;25.00;23.00;;;;;;;;1954178;28;2506463;-84
2023/06/13 01:57:36;;;;;;;;;26.50;22.50;;;;;;;;1961516;28;2850765;-84
2023/06/13 01:58:57;;;;;;;;;24.67;22.33;;;;;;;;1953860;28;3582532;-84
2023/06/13 02:00:09;;;;;;;;;22.50;21.00;;;;;;;;1959477;28;2842958;-80
2023/06/13 02:01:20;;;;;;;;;17.00;17.00;;;;;;;;1958369;28;2825254;-78
2023/06/13 02:02:31;;;;;;;;;18.33;18.33;;;;;;;;1961019;28;2827404;-77
2023/06/13 02:03:42;;;;;;;;;26.33;24.33;;;;;;;;1981255;28;3585660;-77
2023/06/13 02:04:56;;;;;;;;;28.38;24.75;;;;;;;;1978025;28;3602268;-77
2023/06/13 02:06:10;;;;;;;;;27.50;25.75;;;;;;;;1982380;28;3588734;-78
2023/06/13 02:07:22;;;;;;;;;27.33;21.33;;;;;;;;1977675;28;3580429;-78
2023/06/13 02:08:34;;;;;;;;;26.00;23.33;;;;;;;;1961019;28;3578381;-79
2023/06/13 02:09:46;;;;;;;;;23.00;20.86;;;;;;;;1982017;28;3572067;-81
2023/06/13 02:10:59;;;;;;;;;22.71;21.71;;;;;;;;1981762;28;3581498;-82
2023/06/13 02:12:12;;;;;;;;;23.86;23.29;;;;;;;;1983188;28;3580799;-83
2023/06/13 02:13:24;;;;;;;;;26.67;24.33;;;;;;;;1969515;28;3560626;-83
2023/06/13 02:14:39;;;;;;;;;24.88;24.88;;;;;;;;1977286;28;3594056;-83
2023/06/13 02:15:50;;;;;;;;;29.33;27.00;;;;;;;;1975844;28;3599201;-83
2023/06/13 02:17:02;;;;;;;;;23.80;22.00;;;;;;;;1971698;28;3571054;-83
2023/06/13 02:18:15;;;;;;;;;26.00;20.67;;;;;;;;1964359;28;3588788;-83
2023/06/13 02:19:26;;;;;;;;;25.67;23.67;;;;;;;;1958299;28;3577843;-77
2023/06/13 02:20:40;;;;;;;;;31.88;25.38;;;;;;;;1971784;28;3580457;-77
2023/06/13 02:21:50;;;;;;;;;26.00;20.00;;;;;;;;1982485;28;2845112;-77
2023/06/13 02:23:03;;;;;;;;;27.57;24.29;;;;;;;;1979779;28;3581493;-77
2023/06/13 02:24:15;;;;;;;;;21.33;21.33;;;;;;;;1966165;28;3562710;-77
2023/06/13 02:25:28;;;;;;;;;22.43;20.00;;;;;;;;1975487;28;3587167;-79
2023/06/13 02:26:41;;;;;;;;;26.88;24.00;;;;;;;;1981240;28;3595043;-78
2023/06/13 02:27:53;;;;;;;;;25.33;22.00;;;;;;;;1983249;28;3565137;-76
2023/06/13 02:29:05;;;;;;;;;28.00;22.20;;;;;;;;1982852;28;3588778;-77
2023/06/13 02:30:18;;;;;;;;;27.00;25.29;;;;;;;;1983164;28;3590841;-77
2023/06/13 02:31:35;;;;;;;;;29.13;25.38;;;;;;;;1978148;28;3598188;-77
2023/06/13 02:32:46;;;;;;;;;25.33;22.33;;;;;;;;1976842;28;3572151;-77
2023/06/13 02:33:58;;;;;;;;;24.40;23.20;;;;;;;;1983819;28;3573453;-86
2023/06/13 02:35:10;;;;;;;;;26.00;23.60;;;;;;;;1981137;28;3582476;-86
2023/06/13 02:36:22;;;;;;;;;24.33;21.00;;;;;;;;1968860;28;3587724;-79
2023/06/13 02:37:35;;;;;;;;;23.43;21.57;;;;;;;;1972428;28;3583511;-79
2023/06/13 02:38:48;;;;;;;;;23.86;22.29;;;;;;;;1972263;28;3585673;-84
2023/06/13 02:40:05;;;;;;;;;28.50;24.63;;;;;;;;1983148;28;3590873;-83
2023/06/13 02:41:15;;;;;;;;;25.00;24.00;;;;;;;;1981682;28;2836752;-81
2023/06/13 02:42:29;;;;;;;;;27.25;22.25;;;;;;;;1973916;28;3589895;-81
2023/06/13 02:43:40;;;;;;;;;24.67;22.00;;;;;;;;1981338;28;3576226;-81
2023/06/13 02:44:51;;;;;;;;;26.80;25.20;;;;;;;;1969781;28;2838838;-81
2023/06/13 02:46:03;;;;;;;;;18.67;17.33;;;;;;;;1988850;28;3571030;-81
2023/06/13 02:47:15;;;;;;;;;25.67;22.00;;;;;;;;1957824;28;3565858;-81
2023/06/13 02:48:26;;;;;;;;;25.60;22.60;;;;;;;;1972945;28;3575205;-81
2023/06/13 02:49:39;;;;;;;;;25.43;22.43;;;;;;;;1979423;28;3583570;-81
2023/06/13 02:50:53;;;;;;;;;24.40;22.40;;;;;;;;1982932;28;3580418;-82
2023/06/13 02:52:04;;;;;;;;;26.33;23.00;;;;;;;;1983312;28;3572088;-82
2023/06/13 02:53:17;;;;;;;;;26.43;25.29;;;;;;;;1971279;28;3591863;-81
2023/06/13 02:54:29;;;;;;;;;26.00;21.00;;;;;;;;1953938;28;2842280;-81
2023/06/13 02:55:44;;;;;;;;;25.40;23.40;;;;;;;;1957223;28;2848291;-81
2023/06/13 02:56:56;;;;;;;;;25.00;21.67;;;;;;;;1976246;28;3590881;-81
2023/06/13 02:58:08;;;;;;;;;28.40;24.60;;;;;;;;1986885;28;3584623;-81
2023/06/13 02:59:20;;;;;;;;;21.14;20.29;;;;;;;;1975718;28;3577307;-81
2023/06/13 03:00:32;;;;;;;;;29.00;23.00;;;;;;;;1984206;28;3578326;-81
2023/06/13 03:01:44;;;;;;;;;31.00;24.40;;;;;;;;2008681;28;3588742;-81
2023/06/13 03:03:02;;;;;;;;;24.00;22.50;;;;;;;;1973418;28;3592908;-81
2023/06/13 03:04:13;;;;;;;;;27.67;22.67;;;;;;;;1983295;28;3593309;-80
2023/06/13 03:05:26;;;;;;;;;25.57;21.29;;;;;;;;1981794;28;3577288;-80
2023/06/13 03:06:41;;;;;;;;;26.50;25.50;;;;;;;;1983122;28;3580476;-80
2023/06/13 03:07:56;;;;;;;;;31.33;24.33;;;;;;;;1977809;28;3582520;-80
2023/06/13 03:09:07;;;;;;;;;28.00;23.00;;;;;;;;1954669;28;2848214;-80
2023/06/13 03:10:18;;;;;;;;;30.00;27.50;;;;;;;;1961892;28;2856511;-81
2023/06/13 03:11:30;;;;;;;;;29.67;22.00;;;;;;;;1969715;28;3588737;-81
2023/06/13 03:12:41;;;;;;;;;19.80;17.60;;;;;;;;1970203;28;2838841;-83
2023/06/13 03:13:52;;;;;;;;;24.33;22.00;;;;;;;;1986782;28;3584545;-83
2023/06/13 03:15:06;;;;;;;;;29.00;26.38;;;;;;;;1982476;28;3592916;-81
2023/06/13 03:16:18;;;;;;;;;24.67;23.00;;;;;;;;1978358;28;3575268;-81
2023/06/13 03:17:30;;;;;;;;;26.67;25.67;;;;;;;;1959628;28;3571063;-81
2023/06/13 03:18:43;;;;;;;;;31.88;25.63;;;;;;;;1983757;28;3584578;-81
2023/06/13 03:19:55;;;;;;;;;28.00;25.50;;;;;;;;1982777;28;2842970;-81
2023/06/13 03:21:06;;;;;;;;;29.00;26.33;;;;;;;;1946701;28;3598144;-81
2023/06/13 03:22:20;;;;;;;;;26.38;23.63;;;;;;;;1975325;28;3579483;-81
2023/06/13 03:23:32;;;;;;;;;29.67;24.67;;;;;;;;1974713;28;3589810;-82
2023/06/13 03:24:44;;;;;;;;;23.00;20.80;;;;;;;;1964195;28;2831565;-82
2023/06/13 03:25:55;;;;;;;;;28.33;22.00;;;;;;;;1975000;28;3596105;-83
2023/06/13 03:27:06;;;;;;;;;23.40;22.60;;;;;;;;1962947;28;2836779;-81
2023/06/13 03:28:18;;;;;;;;;24.67;23.00;;;;;;;;1986693;28;3585648;-81
2023/06/13 03:29:31;;;;;;;;;26.71;25.14;;;;;;;;1979810;28;3584588;-81
2023/06/13 03:30:44;;;;;;;;;28.75;25.50;;;;;;;;1975439;28;3591338;-81
2023/06/13 03:31:55;;;;;;;;;31.50;24.00;;;;;;;;1979867;28;2507036;-81
2023/06/13 03:33:06;;;;;;;;;25.60;21.40;;;;;;;;1967589;28;2846184;-81
2023/06/13 03:34:16;;;;;;;;;27.00;21.50;;;;;;;;1986357;28;2848157;-81
2023/06/13 03:35:30;;;;;;;;;28.25;26.38;;;;;;;;1982598;28;3591922;-81
2023/06/13 03:36:43;;;;;;;;;27.00;21.50;;;;;;;;1985977;28;2854427;-81
2023/06/13 03:37:54;;;;;;;;;25.33;23.00;;;;;;;;1956566;28;3588778;-81
2023/06/13 03:39:07;;;;;;;;;24.14;23.14;;;;;;;;1981935;28;3569969;-81
2023/06/13 03:40:21;;;;;;;;;24.00;20.50;;;;;;;;1982450;28;3592949;-81
2023/06/13 03:41:32;;;;;;;;;25.33;21.67;;;;;;;;1980125;28;3577272;-81
2023/06/13 03:42:44;;;;;;;;;29.00;25.60;;;;;;;;1981086;28;3588718;-81
2023/06/13 03:43:58;;;;;;;;;29.38;27.75;;;;;;;;1979841;28;3600219;-81
2023/06/13 03:45:09;;;;;;;;;27.33;26.33;;;;;;;;1978358;28;3579398;-81
2023/06/13 03:46:21;;;;;;;;;24.00;22.20;;;;;;;;1985084;28;3583525;-81
2023/06/13 03:47:32;;;;;;;;;21.40;18.40;;;;;;;;1967747;28;2838876;-81
2023/06/13 03:48:46;;;;;;;;;28.25;25.75;;;;;;;;2005984;28;3591906;-81
2023/06/13 03:49:57;;;;;;;;;24.67;18.67;;;;;;;;1977183;28;3586662;-81
2023/06/13 03:51:10;;;;;;;;;27.86;24.86;;;;;;;;1975304;28;3582513;-81
2023/06/13 03:52:24;;;;;;;;;30.25;27.13;;;;;;;;1982631;28;3602351;-81
2023/06/13 03:53:35;;;;;;;;;21.00;19.33;;;;;;;;1974490;28;3577273;-81
2023/06/13 03:54:49;;;;;;;;;28.13;23.25;;;;;;;;1978442;28;3593251;-81
2023/06/13 03:56:00;;;;;;;;;23.00;22.67;;;;;;;;1980228;28;3576629;-81
2023/06/13 03:57:12;;;;;;;;;26.00;25.00;;;;;;;;1964968;28;3580475;-81
2023/06/13 03:58:26;;;;;;;;;33.50;28.63;;;;;;;;1977983;28;3612708;-81
2023/06/13 03:59:38;;;;;;;;;27.33;23.67;;;;;;;;1965271;28;3575264;-78
2023/06/13 04:00:50;;;;;;;;;26.33;25.00;;;;;;;;1965087;28;3583557;-78
2023/06/13 04:02:02;;;;;;;;;25.00;23.00;;;;;;;;1960570;28;3563790;-78
2023/06/13 04:03:14;;;;;;;;;20.33;19.67;;;;;;;;1957156;28;3581513;-78
2023/06/13 04:04:26;;;;;;;;;26.00;23.40;;;;;;;;1967459;28;2843013;-78
2023/06/13 04:05:38;;;;;;;;;27.67;25.00;;;;;;;;1979802;28;3590868;-79
2023/06/13 04:06:51;;;;;;;;;29.00;26.25;;;;;;;;1976038;28;3588746;-79
2023/06/13 04:08:05;;;;;;;;;24.67;22.00;;;;;;;;1976618;28;3562796;-79
2023/06/13 04:09:16;;;;;;;;;23.67;23.67;;;;;;;;1957241;28;3580457;-79
2023/06/13 04:10:27;;;;;;;;;26.20;24.00;;;;;;;;1965907;28;2843363;-79
2023/06/13 04:11:38;;;;;;;;;22.33;17.33;;;;;;;;1982452;28;3572076;-79
2023/06/13 04:12:51;;;;;;;;;28.86;23.29;;;;;;;;1972005;28;3575224;-79
2023/06/13 04:14:05;;;;;;;;;28.38;25.63;;;;;;;;1981882;28;3593989;-83
2023/06/13 04:15:16;;;;;;;;;28.33;25.00;;;;;;;;1958782;28;2838100;-83
2023/06/13 04:16:27;;;;;;;;;31.67;27.33;;;;;;;;1986531;28;2859625;-83
2023/06/13 04:17:40;;;;;;;;;30.00;27.67;;;;;;;;1981076;28;3600248;-83
2023/06/13 04:18:54;;;;;;;;;30.00;28.67;;;;;;;;1959883;28;3603366;-83
2023/06/13 04:20:06;;;;;;;;;28.00;25.00;;;;;;;;1959998;28;3581483;-81
2023/06/13 04:21:17;;;;;;;;;28.80;25.60;;;;;;;;1969886;28;3583530;-81
2023/06/13 04:22:31;;;;;;;;;21.71;18.71;;;;;;;;1981860;28;3581534;-81
2023/06/13 04:23:43;;;;;;;;;26.00;26.00;;;;;;;;1955599;28;3587685;-81
2023/06/13 04:24:54;;;;;;;;;24.33;21.67;;;;;;;;1969324;28;3581478;-81
2023/06/13 04:26:05;;;;;;;;;27.00;23.80;;;;;;;;1969154;28;2845117;-80
2023/06/13 04:27:19;;;;;;;;;28.67;25.00;;;;;;;;1978244;28;3596058;-80
2023/06/13 04:28:32;;;;;;;;;31.33;26.67;;;;;;;;1959365;28;3608529;-80
2023/06/13 04:29:43;;;;;;;;;30.00;23.67;;;;;;;;1958761;28;3590866;-80
2023/06/13 04:31:03;;;;;;;;;28.80;23.40;;;;;;;;1980339;28;3587026;-80
2023/06/13 04:32:17;;;;;;;;;26.50;25.00;;;;;;;;1955465;28;2830487;-80
2023/06/13 04:33:28;;;;;;;;;26.33;25.00;;;;;;;;1953689;28;3571094;-80
2023/06/13 04:34:44;;;;;;;;;31.75;27.50;;;;;;;;1983779;28;3584586;-81
2023/06/13 04:36:03;;;;;;;;;25.67;23.00;;;;;;;;1981604;28;3577335;-81
2023/06/13 04:37:23;;;;;;;;;29.50;26.50;;;;;;;;1956029;28;2853398;-80
2023/06/13 04:38:35;;;;;;;;;28.67;25.00;;;;;;;;1960933;28;3585637;-80
2023/06/13 04:39:46;;;;;;;;;27.67;25.00;;;;;;;;1957092;28;3581498;-80
2023/06/13 04:41:00;;;;;;;;;29.14;25.71;;;;;;;;1982377;28;3589791;-82
2023/06/13 04:42:14;;;;;;;;;32.33;26.67;;;;;;;;1968408;28;3604367;-81
2023/06/13 04:43:28;;;;;;;;;31.67;28.33;;;;;;;;1961834;28;3594972;-81
2023/06/13 04:44:39;;;;;;;;;28.00;26.33;;;;;;;;1961521;28;3587732;-81
2023/06/13 04:45:53;;;;;;;;;30.43;25.14;;;;;;;;1978951;28;3581450;-82
2023/06/13 04:47:03;;;;;;;;;32.00;25.00;;;;;;;;1959901;28;2850214;-81
2023/06/13 04:48:15;;;;;;;;;28.20;24.40;;;;;;;;1983213;28;3575205;-81
2023/06/13 04:49:28;;;;;;;;;26.14;24.29;;;;;;;;1976028;28;3579859;-81
2023/06/13 04:50:41;;;;;;;;;26.13;23.88;;;;;;;;1979218;28;3593993;-83
2023/06/13 04:51:57;;;;;;;;;25.67;22.67;;;;;;;;1980467;28;3587721;-83
2023/06/13 04:53:11;;;;;;;;;24.00;22.33;;;;;;;;1958035;28;2837726;-83
2023/06/13 04:54:23;;;;;;;;;26.33;24.33;;;;;;;;1976613;28;3588742;-83
2023/06/13 04:55:37;;;;;;;;;29.00;25.67;;;;;;;;1960583;28;3587719;-83
2023/06/13 04:56:49;;;;;;;;;29.67;27.00;;;;;;;;1961116;28;3583581;-83
2023/06/13 04:57:59;;;;;;;;;31.00;25.00;;;;;;;;1971409;28;2506481;-83
2023/06/13 04:59:13;;;;;;;;;28.88;26.25;;;;;;;;1982770;28;3599201;-83
2023/06/13 05:00:24;;;;;;;;;30.00;25.50;;;;;;;;1978543;28;2506486;-83
2023/06/13 05:01:37;;;;;;;;;28.67;24.00;;;;;;;;1971059;28;3578410;-83
2023/06/13 05:02:50;;;;;;;;;23.67;23.00;;;;;;;;1960456;28;3581517;-83
2023/06/13 05:04:02;;;;;;;;;21.00;20.33;;;;;;;;1954429;28;3574263;-83
2023/06/13 05:05:18;;;;;;;;;23.86;21.71;;;;;;;;1982405;28;3585609;-83
2023/06/13 05:06:28;;;;;;;;;28.00;24.00;;;;;;;;1959337;28;2506525;-83
2023/06/13 05:07:42;;;;;;;;;35.50;28.63;;;;;;;;1982594;28;3630581;-82
2023/06/13 05:08:54;;;;;;;;;30.33;27.00;;;;;;;;1962782;28;3594021;-81
2023/06/13 05:10:08;;;;;;;;;36.60;28.60;;;;;;;;1981055;28;3618275;-81
2023/06/13 05:11:19;;;;;;;;;27.00;22.33;;;;;;;;1959126;28;3567937;-81
2023/06/13 05:12:32;;;;;;;;;29.38;24.13;;;;;;;;1982255;28;3581454;-81
2023/06/13 05:13:43;;;;;;;;;24.50;23.50;;;;;;;;1983966;28;2852359;-81
2023/06/13 05:14:56;;;;;;;;;29.50;27.13;;;;;;;;1974981;28;3604438;-81
2023/06/13 05:16:09;;;;;;;;;27.00;23.40;;;;;;;;1978600;28;3581478;-81
2023/06/13 05:17:21;;;;;;;;;26.33;24.00;;;;;;;;1963591;28;3585680;-81
2023/06/13 05:18:32;;;;;;;;;30.00;25.00;;;;;;;;1962274;28;2862765;-81
2023/06/13 05:19:43;;;;;;;;;29.80;27.60;;;;;;;;1972330;28;3589820;-81
2023/06/13 05:20:56;;;;;;;;;29.71;25.86;;;;;;;;2007844;28;3594980;-84
2023/06/13 05:22:08;;;;;;;;;29.80;25.60;;;;;;;;1974887;28;3604409;-84
2023/06/13 05:23:21;;;;;;;;;25.20;25.00;;;;;;;;2002303;28;3583589;-86
2023/06/13 05:24:32;;;;;;;;;26.67;24.67;;;;;;;;1951690;28;3577351;-86
2023/06/13 05:25:44;;;;;;;;;33.20;30.60;;;;;;;;1978422;28;3586671;-86
2023/06/13 05:26:57;;;;;;;;;25.80;24.20;;;;;;;;1977435;28;3582550;-85
2023/06/13 05:28:08;;;;;;;;;27.60;27.40;;;;;;;;1960636;28;3583545;-86
2023/06/13 05:29:20;;;;;;;;;30.20;26.00;;;;;;;;1968962;28;3598142;-87
2023/06/13 05:30:32;;;;;;;;;22.00;20.80;;;;;;;;1960461;28;2832575;-85
2023/06/13 05:31:42;;;;;;;;;30.50;27.50;;;;;;;;1973174;28;2850213;-87
2023/06/13 05:32:56;;;;;;;;;28.57;24.14;;;;;;;;1979921;28;3585628;-87
2023/06/13 05:34:07;;;;;;;;;30.00;28.00;;;;;;;;1961298;28;2850279;-90
2023/06/13 05:35:19;;;;;;;;;30.00;25.20;;;;;;;;1975823;28;3596040;-87
2023/06/13 05:36:30;;;;;;;;;31.60;30.40;;;;;;;;1982225;28;3596152;-87
2023/06/13 05:37:43;;;;;;;;;28.20;23.80;;;;;;;;1976638;28;3587689;-84
2023/06/13 05:38:55;;;;;;;;;31.50;28.50;;;;;;;;1958439;28;2860658;-85
2023/06/13 05:40:06;;;;;;;;;28.00;24.00;;;;;;;;1962186;28;2851259;-80
2023/06/13 05:41:17;;;;;;;;;31.60;28.20;;;;;;;;1975353;28;3602307;-81
2023/06/13 05:42:31;;;;;;;;;32.60;26.60;;;;;;;;1988183;28;3606517;-81
2023/06/13 05:43:42;;;;;;;;;32.00;27.67;;;;;;;;1957022;28;2871178;-81
2023/06/13 05:44:52;;;;;;;;;27.50;26.00;;;;;;;;1986557;28;2860630;-79
2023/06/13 05:46:06;;;;;;;;;30.63;27.00;;;;;;;;1977554;28;3591858;-80
2023/06/13 05:47:17;;;;;;;;;26.00;25.33;;;;;;;;1979861;28;3595028;-80
2023/06/13 05:48:29;;;;;;;;;32.80;29.40;;;;;;;;1985956;28;3590810;-81
2023/06/13 05:49:41;;;;;;;;;32.40;27.80;;;;;;;;1982042;28;3605819;-81
2023/06/13 05:50:55;;;;;;;;;30.50;25.63;;;;;;;;1978199;28;3602417;-81
2023/06/13 05:52:06;;;;;;;;;24.00;19.67;;;;;;;;1975432;28;3591947;-80
2023/06/13 05:53:19;;;;;;;;;27.57;26.14;;;;;;;;1975824;28;3581442;-81
2023/06/13 05:54:32;;;;;;;;;28.60;24.60;;;;;;;;1982231;28;3584987;-82
2023/06/13 05:55:42;;;;;;;;;29.50;26.00;;;;;;;;1978697;28;2506525;-81
2023/06/13 05:56:56;;;;;;;;;28.88;25.50;;;;;;;;1983457;28;3594017;-81
2023/06/13 05:58:06;;;;;;;;;32.50;29.00;;;;;;;;1983006;28;2863144;-82
2023/06/13 05:59:18;;;;;;;;;28.20;26.40;;;;;;;;1983633;28;3596120;-79
2023/06/13 06:00:30;;;;;;;;;32.20;26.80;;;;;;;;1983645;28;3601336;-80
2023/06/13 06:01:42;;;;;;;;;31.40;27.00;;;;;;;;1960995;28;2851367;-78
2023/06/13 06:02:53;;;;;;;;;28.60;25.80;;;;;;;;1993223;28;3581502;-81
2023/06/13 06:04:05;;;;;;;;;29.00;24.00;;;;;;;;2003273;28;3581553;-82
2023/06/13 06:05:21;;;;;;;;;26.43;22.57;;;;;;;;1977076;28;3581506;-78
2023/06/13 06:06:32;;;;;;;;;30.00;27.00;;;;;;;;1953107;28;3606501;-77
2023/06/13 06:07:43;;;;;;;;;22.80;19.80;;;;;;;;1961451;28;2831609;-77
2023/06/13 06:08:55;;;;;;;;;26.80;25.60;;;;;;;;1982877;28;3591926;-77
2023/06/13 06:10:09;;;;;;;;;27.38;26.38;;;;;;;;1982815;28;3591266;-77
2023/06/13 06:11:19;;;;;;;;;25.00;23.00;;;;;;;;1980534;28;2836764;-76
2023/06/13 06:12:31;;;;;;;;;27.60;26.40;;;;;;;;1984261;28;3591924;-76
2023/06/13 06:13:45;;;;;;;;;30.63;27.25;;;;;;;;1975348;28;3598155;-76
2023/06/13 06:14:58;;;;;;;;;30.88;26.75;;;;;;;;1981755;28;3600338;-76
2023/06/13 06:16:11;;;;;;;;;24.60;23.80;;;;;;;;1981975;28;3582516;-76
2023/06/13 06:17:23;;;;;;;;;22.33;21.33;;;;;;;;1960459;28;3578389;-76
2023/06/13 06:18:34;;;;;;;;;31.00;25.40;;;;;;;;1975945;28;3581036;-76
2023/06/13 06:19:48;;;;;;;;;30.63;26.75;;;;;;;;1978790;28;3605427;-76
2023/06/13 06:21:02;;;;;;;;;26.43;24.14;;;;;;;;2001938;28;3582532;-76
2023/06/13 06:22:13;;;;;;;;;21.00;21.00;;;;;;;;1948884;28;3586502;-76
2023/06/13 06:23:27;;;;;;;;;30.38;25.50;;;;;;;;1968855;28;3600219;-77
2023/06/13 06:24:39;;;;;;;;;22.33;21.67;;;;;;;;1979414;28;3583569;-77
2023/06/13 06:25:51;;;;;;;;;22.67;22.67;;;;;;;;1966232;28;3583657;-77
2023/06/13 06:27:02;;;;;;;;;23.00;20.00;;;;;;;;1957205;28;3576285;-77
2023/06/13 06:28:15;;;;;;;;;25.29;23.57;;;;;;;;1977242;28;3573172;-77
2023/06/13 06:29:31;;;;;;;;;26.63;25.00;;;;;;;;1980418;28;3586698;-76
2023/06/13 06:30:41;;;;;;;;;26.00;23.00;;;;;;;;1984227;28;2839913;-76
2023/06/13 06:31:53;;;;;;;;;26.00;23.80;;;;;;;;1984158;28;3573140;-76
2023/06/13 06:33:06;;;;;;;;;26.75;22.25;;;;;;;;2003709;28;3582572;-76
2023/06/13 06:34:17;;;;;;;;;19.00;17.50;;;;;;;;1977830;28;2830574;-77
2023/06/13 06:35:28;;;;;;;;;22.80;19.60;;;;;;;;1955456;28;2833694;-76
2023/06/13 06:36:39;;;;;;;;;21.00;18.67;;;;;;;;1972506;28;3571480;-76
2023/06/13 06:37:50;;;;;;;;;19.20;17.60;;;;;;;;1959086;28;2837784;-76
2023/06/13 06:39:02;;;;;;;;;23.80;18.80;;;;;;;;2000505;28;3577699;-76
2023/06/13 06:40:14;;;;;;;;;23.40;21.40;;;;;;;;1998905;28;3576226;-76
2023/06/13 06:41:25;;;;;;;;;20.40;18.80;;;;;;;;1953667;28;2840985;-76
2023/06/13 06:42:36;;;;;;;;;18.00;17.60;;;;;;;;1969369;28;2836800;-76
2023/06/13 06:43:47;;;;;;;;;20.67;19.33;;;;;;;;1974607;28;3571113;-77
2023/06/13 06:45:00;;;;;;;;;22.14;20.00;;;;;;;;1972522;28;3583515;-77
2023/06/13 06:46:12;;;;;;;;;20.40;17.40;;;;;;;;1970029;28;3566911;-77
2023/06/13 06:47:24;;;;;;;;;20.40;18.80;;;;;;;;2003698;28;3577283;-77
2023/06/13 06:48:35;;;;;;;;;19.60;18.60;;;;;;;;1960344;28;2839864;-79
2023/06/13 06:49:46;;;;;;;;;18.00;18.00;;;;;;;;1970278;28;3568964;-77
2023/06/13 06:50:58;;;;;;;;;21.80;20.00;;;;;;;;1976503;28;3582527;-77